Flight Track Log - Related Links

Times and Time Zones

All times are in EDT time to prevent confusion due to time zone crossing. See the N610DA flight status page for this flight to view local times or setup timezone preferences in your user account.

Time Position Orientation Groundspeed Altitude Reporting Facility
EDT Latitude Longitude Course Direction KTS MPH feet Rate Location/Type
Thu 05:20:02 PM 30.3533 -81.5325 275° West 82 94 600  Level Jacksonville Center
Thu 05:21:03 PM 30.3556 -81.5639 275° West 101 116 1,300 689 Climbing Jacksonville Center
Thu 05:22:04 PM 30.3517 -81.5950 262° West 103 119 2,000 639 Climbing Jacksonville Center
Thu 05:23:05 PM 30.3522 -81.6311 271° West 104 120 2,600 443 Climbing Jacksonville Center
Thu 05:24:06 PM 30.3503 -81.6650 266° West 112 129 2,900 188 Climbing Jacksonville Center
Thu 05:25:13 PM 30.3236 -81.6989 228° Southwest 123 142 3,000  Climbing Jacksonville Center
Thu 05:26:08 PM 30.3050 -81.7281 234° Southwest 123 142 2,900 -52 Descending Jacksonville Center
Thu 05:27:09 PM 30.2864 -81.7572 234° Southwest 122 140 2,900 50 Level Jacksonville Center
Thu 05:28:09 PM 30.2639 -81.7886 230° Southwest 123 142 3,000  Climbing Jacksonville Center
Thu 05:29:10 PM 30.2453 -81.8250 239° Southwest 132 152 2,900 -49 Descending Jacksonville Center
Thu 05:30:11 PM 30.2311 -81.8611 246° West 121 139 2,900  Level Jacksonville Center
Thu 05:31:30 PM 30.2042 -81.9094 237° Southwest 127 146 2,900  Level Jacksonville Center
Thu 05:32:13 PM 30.2128 -81.9336 292° West 114 131 2,900  Level Jacksonville Center
Thu 05:33:14 PM 30.2278 -81.9669 298° West 116 133 2,900 52 Level Jacksonville Center
Thu 05:34:09 PM 30.2175 -81.9983 249° West 131 151 3,000 -134 Climbing Jacksonville Center
Thu 05:35:28 PM 30.2072 -82.0394 254° West 103 119 2,600 -493 Descending Jacksonville Center
Thu 05:36:23 PM 30.2239 -82.0200 45° Northeast 113 130 1,900 -466 Descending Jacksonville Center
Thu 05:37:24 PM 30.2297 -81.9814 80° East 108 124 1,700 -422 Descending Jacksonville Center
Thu 05:38:31 PM 30.2233 -81.9478 102° East 100 115 1,000 -469 Descending Jacksonville Center
Thu 05:39:32 PM 30.2147 -81.9192 109° East 93 107 700 -136 Descending Jacksonville Center
Thu 05:41:28 PM 30.1811 -81.8858 139° Southeast 100 115 600 -45 Descending Jacksonville Center
Thu 05:41:46 PM 30.1811 -81.8761 90° East 110 127 600 38 Level Jacksonville Center
Thu 05:43:00 PM 30.1814 -81.8374 90° East  Level FlightAware Approximate
Thu 05:44:06 PM 30.2292 -81.8781 90° East 82 94 700  Level Jacksonville Center
Thu 05:45:32 PM 30.2231 -81.9239 261° West 116 133 1,600 667 Climbing Jacksonville Center
Thu 05:46:39 PM 30.2003 -81.9192 170° South 123 142 2,400 590 Climbing Jacksonville Center
Thu 05:47:34 PM 30.1978 -81.8856 95° East 117 135 2,800 310 Climbing Jacksonville Center
Thu 05:48:35 PM 30.1953 -81.8447 94° East 127 146 3,000 99 Climbing Jacksonville Center
Thu 05:49:35 PM 30.1950 -81.7992 90° East 138 159 3,000 -47 Level Jacksonville Center
Thu 05:50:42 PM 30.1947 -81.7511 90° East 142 163 2,900  Descending Jacksonville Center
Thu 05:51:43 PM 30.1964 -81.7053 88° East 138 159 3,000 197 Climbing Jacksonville Center
Thu 05:52:44 PM 30.1978 -81.6572 88° East 138 159 3,300 414 Climbing Jacksonville Center
Thu 05:53:39 PM 30.1956 -81.6214 94° East 121 139 3,800 541 Climbing Jacksonville Center
Thu 05:54:46 PM 30.1972 -81.5803 87° East 118 136 4,400 569 Climbing Jacksonville Center
Thu 05:55:35 PM 30.2011 -81.5539 80° East 101 116 4,900 310 Climbing Jacksonville Center
Thu 05:56:42 PM 30.2006 -81.5058 91° East 128 147 5,000 47 Climbing Jacksonville Center
Thu 05:57:43 PM 30.1981 -81.4625 94° East 138 159 5,000  Level Jacksonville Center
Thu 05:58:38 PM 30.1956 -81.4242 94° East 140 161 5,000  Level Jacksonville Center
Thu 05:59:39 PM 30.1928 -81.3786 94° East 142 163 5,000 47 Level Jacksonville Center
Thu 06:00:46 PM 30.1778 -81.3356 112° Southeast 151 174 5,100  Climbing Jacksonville Center
Thu 06:01:41 PM 30.1461 -81.3217 159° South 152 175 5,000 -55 Descending Jacksonville Center
Thu 06:02:35 PM 30.1528 -81.3503 285° West 123 142 5,000  Level Jacksonville Center
Thu 06:03:54 PM 30.1925 -81.3569 352° North 125 144 5,000  Level Jacksonville Center
Thu 06:04:49 PM 30.1969 -81.3858 280° West 149 171 5,000 52 Level Jacksonville Center
Thu 06:05:50 PM 30.1656 -81.3622 147° Southeast 146 168 5,100  Climbing Jacksonville Center
Thu 06:06:57 PM 30.1461 -81.3217 119° Southeast 137 158 5,000  Descending Jacksonville Center
Thu 06:08:04 PM 30.1756 -81.3381 334° Northwest 116 133 5,100  Climbing Jacksonville Center
Thu 06:08:47 PM 30.1947 -81.3569 320° Northwest 129 148 5,000 -58 Descending Jacksonville Center
Thu 06:09:48 PM 30.1761 -81.3789 226° Southwest 162 186 5,000  Level Jacksonville Center
Thu 06:10:49 PM 30.1528 -81.3431 127° Southeast 145 167 5,000 -50 Level Jacksonville Center
Thu 06:11:49 PM 30.1800 -81.3450 356° North 125 144 4,900 -496 Descending Jacksonville Center
Thu 06:12:50 PM 30.2053 -81.3711 318° Northwest 126 145 4,000 -934 Descending Jacksonville Center
Thu 06:13:51 PM 30.2328 -81.3972 321° Northwest 123 142 3,000 -927 Descending Jacksonville Center
Thu 06:14:53 PM 30.2517 -81.4186 316° Northwest 104 120 2,100 -703 Descending Jacksonville Center
Thu 06:15:59 PM 30.2728 -81.4422 316° Northwest 95 109 1,500 -472 Descending Jacksonville Center
Thu 06:17:00 PM 30.2939 -81.4636 319° Northwest 96 110 1,100 -466 Descending Jacksonville Center
Thu 06:17:55 PM 30.3067 -81.4825 308° West 90 104 600 -414 Descending Jacksonville Center
Thu 06:18:56 PM 30.3236 -81.5017 316° Northwest 88 101 300  Descending Jacksonville Center
Thu 06:19:38 PM 30.3406 -81.5183 320° Northwest 81 93 600 569 Climbing Jacksonville Center
Thu 06:20:52 PM 30.3633 -81.5131 11° North 118 136 1,400 642 Climbing Jacksonville Center
Thu 06:22:17 PM 30.3544 -81.4578 101° East 120 138 2,300 586 Climbing Jacksonville Center
Thu 06:23:05 PM 30.3542 -81.4289 91° East 132 152 2,700 440 Climbing Jacksonville Center
Thu 06:24:06 PM 30.3433 -81.3931 109° East 119 137 3,100 218 Climbing Jacksonville Center
Thu 06:24:55 PM 30.3367 -81.3594 103° East 127 146 3,100 -45 Level Jacksonville Center
Thu 06:26:20 PM 30.3069 -81.3119 126° Southeast 146 168 3,000 -47 Descending Jacksonville Center
Thu 06:27:03 PM 30.2819 -81.3242 203° Southwest 132 152 3,000  Level Jacksonville Center
Thu 06:28:04 PM 30.2508 -81.3464 212° Southwest 125 144 3,000  Level Jacksonville Center
Thu 06:29:05 PM 30.2219 -81.3686 214° Southwest 126 145 3,000 -148 Level Jacksonville Center
Thu 06:30:06 PM 30.2286 -81.3947 286° West 110 127 2,700 -541 Descending Jacksonville Center
Thu 06:31:07 PM 30.2517 -81.4136 325° Northwest 109 125 1,900 -393 Descending Jacksonville Center
Thu 06:32:08 PM 30.2686 -81.4350 313° West 96 110 1,900 -298 Level Jacksonville Center
Thu 06:33:08 PM 30.2878 -81.4589 313° West 89 102 1,300 -496 Descending Jacksonville Center
Thu 06:34:09 PM 30.3047 -81.4803 313° West 98 113 900 -422 Descending Jacksonville Center
Thu 06:35:16 PM 30.3236 -81.5017 316° Northwest 106 122 400 -246 Descending Jacksonville Center
Thu 06:36:11 PM 30.3281 -81.5111 299° West 106 122 400  Level Jacksonville Center

Login

Don't have an account? Register now (free) for customized features, flight alerts, and more!